Nearby METAR Reports

 

KMLP - Mullan Pass, Idaho, USA
Distance from station: NE 41mi, 66km
Updated: Sun, 16-Jun-2024 10:14am PDT
Overcast
Overcast
 Wind from calm
Wind: Calm
Temperature: 34°F , 1°C
Dew Point: 27°F , -3°C
Humidity: 75%
Barometer: 29.98 inHg , 1015.2 hPa
Clouds: Overcast
Visibility: 10 miles , 16 km
Cloud details: Mostly Cloudy 1600 ft
Overcast 2200 ft
2024/06/16 17:14 KMLP 161714Z AUTO 00000KT 10SM BKN016 OVC022 01/M03 A2998 RMK AO2 T00111028
KPUW - Pullman/Moscow, Washington, USA
Distance from station: SW 42mi, 68km
Updated: Sun, 16-Jun-2024 9:53am PDT
Partly Cloudy
Partly Cloudy
 Wind from WSW
Wind: WSW 7 mph , 11 km/h
Temperature: 50°F , 10°C
Wind Chill: 47°F , 8°C
Dew Point: 34°F , 1°C
Humidity: 54%
Barometer: 30.04 inHg , 1017.3 hPa
Clouds: Partly Cloudy
Visibility: 10 miles , 16 km
Cloud details: Partly Cloudy 3600 ft
2024/06/16 16:53 KPUW 161653Z AUTO 24006KT 10SM SCT036 10/01 A3004 RMK AO2 SLP178 T01000006 $
 
KCOE - Coeur D'alene, Idaho, USA
Distance from station: NNW 49mi, 79km
Updated: Sun, 16-Jun-2024 9:56am PDT
Overcast
Overcast
 Wind from SW
Wind: SW 8 mph , 13 km/h
Temperature: 52°F , 11°C
Dew Point: 37°F , 3°C
Humidity: 58%
Barometer: 30.02 inHg , 1016.6 hPa
Clouds: Overcast
Visibility: 10 miles , 16 km
Cloud details: Overcast 3400 ft
2024/06/16 16:56 KCOE 161656Z AUTO 22007KT 10SM OVC034 11/03 A3002 RMK AO2 SLP188 T01060028 PNO $
KSFF - Spokane/Felts, Washington, USA
Distance from station: NW 59mi, 94km
Updated: Sun, 16-Jun-2024 9:53am PDT
Mostly Cloudy
Mostly Cloudy
 Wind from SW
Wind: SW 9 mph , 15 km/h, Gust: 16 mph , 26 km/h
Temperature: 54°F , 12°C
Dew Point: 36°F , 2°C
Humidity: 51%
Barometer: 30.02 inHg , 1016.6 hPa
Clouds: Mostly Cloudy
Visibility: 10 miles , 16 km
Cloud details: Mostly Cloudy 3700 ft
2024/06/16 16:53 KSFF 161653Z 23008G14KT 10SM BKN037 12/02 A3002 RMK AO2 SLP165 T01170022
 
KLWS - Lewiston, Idaho, USA
Distance from station: SSW 59mi, 96km
Updated: Sun, 16-Jun-2024 9:56am PDT
Few Clouds
Few Clouds
 Wind from SSE
Wind: SSE 6 mph , 9 km/h
Temperature: 59°F , 15°C
Dew Point: 30°F , -1°C
Humidity: 34%
Barometer: 30.02 inHg , 1016.6 hPa
Clouds: Few Clouds
Visibility: 10 miles , 16 km
Cloud details: Few Clouds 6000 ft
2024/06/16 16:56 KLWS 161656Z 16005KT 10SM FEW060 15/M01 A3002 RMK AO2 SLP164 T01501011 $
KGEG - Spokane/Metro, Washington, USA
Distance from station: WNW 64mi, 103km
Updated: Sun, 16-Jun-2024 9:53am PDT
Mostly Cloudy
Mostly Cloudy
 Wind from S
Wind: S 12 mph , 19 km/h, Gust: 20 mph , 31 km/h
Temperature: 54°F , 12°C
Dew Point: 34°F , 1°C
Humidity: 47%
Barometer: 30.01 inHg , 1016.3 hPa
Clouds: Mostly Cloudy
Visibility: 10 miles , 16 km
Cloud details: Mostly Cloudy 3200 ft
Mostly Cloudy 17000 ft
2024/06/16 16:53 KGEG 161653Z 19010G17KT 10SM BKN032 BKN170 12/01 A3001 RMK AO2 SLP161 T01170006 $
 
KSKA - Fairchild Afb, Washington, USA
Distance from station: WNW 68mi, 110km
Updated: Sun, 16-Jun-2024 9:55am PDT
Mostly Cloudy
Mostly Cloudy
 Wind from S
Wind: S 9 mph , 15 km/h
Temperature: 50°F , 10°C
Wind Chill: 46°F , 8°C
Dew Point: 36°F , 2°C
Humidity: 58%
Barometer: 29.99 inHg , 1015.6 hPa
Clouds: Mostly Cloudy
Visibility: 10 miles , 16 km
Cloud details: Mostly Cloudy 3400 ft
2024/06/16 16:55 KSKA 161655Z 19008KT 10SM BKN034 10/02 A2999 RMK AO2A SLP159 T01040017